sensor_id;sensor_type;location;lat;lon;timestamp;P1;P2;P0
50041;PMS7003;44598;51.606;5.912;2023-07-20T00:00:17;6.01;8.51;6.77
50041;PMS7003;44598;51.606;5.912;2023-07-20T00:13:37;6.37;8.62;6.66
50041;PMS7003;44598;51.606;5.912;2023-07-20T00:40:17;7.69;10.04;7.42
50041;PMS7003;44598;51.606;5.912;2023-07-20T01:06:56;7.45;10.04;7.31
50041;PMS7003;44598;51.606;5.912;2023-07-20T02:13:35;12.73;13.53;9.93
50041;PMS7003;44598;51.606;5.912;2023-07-20T02:26:55;13.57;15.16;11.02
50041;PMS7003;44598;51.606;5.912;2023-07-20T02:40:15;14.17;16.03;11.24
50041;PMS7003;44598;51.606;5.912;2023-07-20T02:53:35;16.21;16.9;11.67
50041;PMS7003;44598;51.606;5.912;2023-07-20T03:20:14;15.37;16.8;11.78
50041;PMS7003;44598;51.606;5.912;2023-07-20T04:00:14;9.13;11.56;9.06
50041;PMS7003;44598;51.606;5.912;2023-07-20T04:13:34;10.21;12.44;9.38
50041;PMS7003;44598;51.606;5.912;2023-07-20T04:26:53;12.37;13.53;10.15
50041;PMS7003;44598;51.606;5.912;2023-07-20T04:40:13;11.53;13.42;10.26
50041;PMS7003;44598;51.606;5.912;2023-07-20T05:06:53;9.85;12.11;8.95
50041;PMS7003;44598;51.606;5.912;2023-07-20T05:20:13;10.69;12.87;10.26
50041;PMS7003;44598;51.606;5.912;2023-07-20T05:46:52;14.17;15.92;11.56
50041;PMS7003;44598;51.606;5.912;2023-07-20T06:00:12;10.09;12.44;9.17
50041;PMS7003;44598;51.606;5.912;2023-07-20T06:13:32;9.01;11.24;8.51
50041;PMS7003;44598;51.606;5.912;2023-07-20T06:40:11;9.37;10.26;7.86
50041;PMS7003;44598;51.606;5.912;2023-07-20T06:53:31;5.41;8.08;6.33
50041;PMS7003;44598;51.606;5.912;2023-07-20T07:06:51;5.17;7.97;6.44
50041;PMS7003;44598;51.606;5.912;2023-07-20T07:33:31;3.6;6.44;5.13
50041;PMS7003;44598;51.606;5.912;2023-07-20T07:46:50;1.08;4.26;3.28
50041;PMS7003;44598;51.606;5.912;2023-07-20T08:00:10;1.08;4.26;3.39
50041;PMS7003;44598;51.606;5.912;2023-07-20T08:13:30;1.8;4.8;3.82
50041;PMS7003;44598;51.606;5.912;2023-07-20T08:26:50;0.01;2.08;1.54
50041;PMS7003;44598;51.606;5.912;2023-07-20T08:40:10;0.84;3.06;2.3
50041;PMS7003;44598;51.606;5.912;2023-07-20T08:53:29;0.01;2.73;2.19
50041;PMS7003;44598;51.606;5.912;2023-07-20T09:20:09;0.01;2.52;2.19
50041;PMS7003;44598;51.606;5.912;2023-07-20T09:33:29;0.01;2.84;2.41
50041;PMS7003;44598;51.606;5.912;2023-07-20T09:46:49;0.01;2.41;1.86
50041;PMS7003;44598;51.606;5.912;2023-07-20T10:13:28;0.01;1.54;1.21
50041;PMS7003;44598;51.606;5.912;2023-07-20T10:26:48;0.01;2.3;1.75
50041;PMS7003;44598;51.606;5.912;2023-07-20T10:53:30;0.01;2.52;1.97
50041;PMS7003;44598;51.606;5.912;2023-07-20T11:06:50;0.12;3.06;2.41
50041;PMS7003;44598;51.606;5.912;2023-07-20T11:20:10;0.01;2.3;1.86
50041;PMS7003;44598;51.606;5.912;2023-07-20T11:46:49;0.01;2.08;1.75
50041;PMS7003;44598;51.606;5.912;2023-07-20T12:00:09;0.01;2.62;2.19
50041;PMS7003;44598;51.606;5.912;2023-07-20T12:13:29;0.01;2.73;2.3
50041;PMS7003;44598;51.606;5.912;2023-07-20T12:40:08;0.24;3.5;2.73
50041;PMS7003;44598;51.606;5.912;2023-07-20T12:53:28;0.6;3.28;2.73
50041;PMS7003;44598;51.606;5.912;2023-07-20T13:06:48;1.2;4.15;3.28
50041;PMS7003;44598;51.606;5.912;2023-07-20T13:20:08;0.6;3.71;2.95
50041;PMS7003;44598;51.606;5.912;2023-07-20T13:46:48;0.01;3.06;2.62
50041;PMS7003;44598;51.606;5.912;2023-07-20T14:00:07;0.01;2.08;1.75
50041;PMS7003;44598;51.606;5.912;2023-07-20T14:13:27;0.01;2.41;1.86
50041;PMS7003;44598;51.606;5.912;2023-07-20T14:26:47;0.01;2.19;1.97
50041;PMS7003;44598;51.606;5.912;2023-07-20T14:40:07;0.72;3.82;3.17
50041;PMS7003;44598;51.606;5.912;2023-07-20T15:06:46;0.01;2.73;2.3
50041;PMS7003;44598;51.606;5.912;2023-07-20T15:20:06;0.24;2.95;2.41
50041;PMS7003;44598;51.606;5.912;2023-07-20T15:33:26;0.01;2.19;1.86
50041;PMS7003;44598;51.606;5.912;2023-07-20T15:46:46;0.01;2.08;1.64
50041;PMS7003;44598;51.606;5.912;2023-07-20T16:13:25;0.01;2.52;2.08
50041;PMS7003;44598;51.606;5.912;2023-07-20T16:26:45;0.01;1.75;1.32
50041;PMS7003;44598;51.606;5.912;2023-07-20T16:53:24;0.01;1.97;1.64
50041;PMS7003;44598;51.606;5.912;2023-07-20T17:06:44;0.01;2.3;1.75
50041;PMS7003;44598;51.606;5.912;2023-07-20T17:20:04;0.01;1.75;1.43
50041;PMS7003;44598;51.606;5.912;2023-07-20T17:33:24;0.01;2.84;2.41
50041;PMS7003;44598;51.606;5.912;2023-07-20T17:46:44;1.68;4.59;3.93
50041;PMS7003;44598;51.606;5.912;2023-07-20T18:13:23;2.4;5.46;4.26
50041;PMS7003;44598;51.606;5.912;2023-07-20T18:26:43;1.56;3.82;2.84
50041;PMS7003;44598;51.606;5.912;2023-07-20T19:06:42;0.24;3.5;3.06
50041;PMS7003;44598;51.606;5.912;2023-07-20T19:20:02;2.76;5.13;3.93
50041;PMS7003;44598;51.606;5.912;2023-07-20T19:33:22;2.04;5.02;4.04
50041;PMS7003;44598;51.606;5.912;2023-07-20T19:46:42;3.85;6.55;5.57
50041;PMS7003;44598;51.606;5.912;2023-07-20T20:13:21;6.49;8.18;6.55
50041;PMS7003;44598;51.606;5.912;2023-07-20T20:26:41;5.29;8.08;6.88
50041;PMS7003;44598;51.606;5.912;2023-07-20T20:53:21;6.01;8.73;7.2
50041;PMS7003;44598;51.606;5.912;2023-07-20T21:06:40;6.97;9.38;7.53
50041;PMS7003;44598;51.606;5.912;2023-07-20T21:20:00;7.09;9.71;7.86
50041;PMS7003;44598;51.606;5.912;2023-07-20T21:33:20;7.57;10.15;8.4
50041;PMS7003;44598;51.606;5.912;2023-07-20T21:46:40;9.13;11.56;9.82
50041;PMS7003;44598;51.606;5.912;2023-07-20T21:59:59;10.45;12.76;10.58
50041;PMS7003;44598;51.606;5.912;2023-07-20T22:13:19;9.61;12.0;9.49
50041;PMS7003;44598;51.606;5.912;2023-07-20T22:26:39;9.61;12.0;9.71
50041;PMS7003;44598;51.606;5.912;2023-07-20T22:39:59;8.17;10.58;8.51
50041;PMS7003;44598;51.606;5.912;2023-07-20T23:19:58;13.09;15.16;11.45
50041;PMS7003;44598;51.606;5.912;2023-07-20T23:33:18;15.73;17.23;12.54
50041;PMS7003;44598;51.606;5.912;2023-07-20T23:46:38;11.77;13.96;11.13
50041;PMS7003;44598;51.606;5.912;2023-07-20T23:59:58;11.29;13.53;10.47
